ADDS METAR Data INFO
IDs: Format: Raw Decoded Include TAF

Data at: 0555 UTC 22 Jan 2018

KW22 220535Z AUTO 20004KT 10SM SCT070 OVC085 12/07 A3010 RMK AO2
KW22 220515Z AUTO 19003KT 10SM BKN070 OVC085 12/07 A3010 RMK AO2
KW22 220455Z AUTO 20004KT 10SM OVC070 12/07 A3011 RMK AO2
KW22 220435Z AUTO 22004KT 10SM BKN070 OVC085 12/07 A3011 RMK AO2
KW22 220415Z AUTO 20005KT 10SM SCT070 BKN085 12/07 A3011 RMK AO2
KW22 220355Z AUTO 20006KT 10SM BKN070 OVC085 12/07 A3011 RMK AO2
KW22 220335Z AUTO 21006KT 10SM BKN075 OVC085 12/07 A3011 RMK AO2
KW22 220315Z AUTO 20005KT 10SM FEW045 SCT070 OVC080 11/07 A3011 RMK AO2
KW22 220255Z AUTO 20006KT 10SM SCT038 BKN070 OVC080 11/08 A3012 RMK AO2
KW22 220235Z AUTO 19006KT 10SM BKN037 BKN045 OVC050 12/08 A3012 RMK AO2
KW22 220215Z AUTO 21005KT 10SM FEW040 BKN048 OVC075 11/08 A3012 RMK AO2
KW22 220155Z AUTO 21004KT 10SM OVC075 12/08 A3012 RMK AO2
KW22 220130Z AUTO 21005KT 10SM FEW050 FEW060 OVC075 12/08 A3011 RMK AO2
KW22 220115Z AUTO 21004KT 10SM FEW048 FEW060 OVC080 11/08 A3011 RMK AO2
KW22 220055Z AUTO 18004KT 10SM BKN037 BKN048 OVC080 11/08 A3011 RMK AO2
KW22 220035Z AUTO 23003KT 10SM BKN038 BKN048 OVC055 12/08 A3012 RMK AO2
KW22 220015Z AUTO 20004KT 10SM BKN050 OVC060 11/08 A3011 RMK AO2
KW22 212355Z AUTO 20003KT 10SM BKN060 OVC075 11/08 A3011 RMK AO2
KW22 212335Z AUTO 19005KT 10SM BKN060 OVC070 11/07 A3011 RMK AO2
KW22 212315Z AUTO 19005KT 10SM SCT026 SCT036 OVC070 12/07 A3011 RMK AO2
KW22 212255Z AUTO 19006KT 10SM BKN025 OVC040 12/07 A3011 RMK AO2
KW22 212235Z AUTO 20006KT 10SM SCT024 BKN031 OVC075 12/07 A3011 RMK AO2
KW22 212215Z AUTO 21006KT 10SM SCT030 SCT038 OVC075 12/07 A3011 RMK AO2
KW22 212155Z AUTO 20007KT 10SM FEW023 SCT028 BKN035 12/07 A3011 RMK AO2
KW22 212135Z AUTO 19006KT 10SM BKN022 BKN030 OVC070 12/07 A3011 RMK AO2
KW22 212115Z AUTO 20007KT 10SM 12/07 A3011 RMK AO2
KW22 212055Z AUTO 21006G12KT 10SM OVC022 12/07 A3012 RMK AO2
KW22 212035Z AUTO 21009G15KT 10SM BKN022 OVC065 12/07 A3011 RMK AO2
KW22 212015Z AUTO 22009G17KT 10SM OVC022 12/07 A3012 RMK AO2
KW22 211955Z AUTO 21009G15KT 10SM OVC022 12/06 A3011 RMK AO2
KW22 211935Z AUTO 22010KT 10SM BKN021 OVC070 12/06 A3011 RMK AO2
KW22 211915Z AUTO 210KT 10SM SCT021 OVC065 12/06 A3011 RMK AO2
KW22 211855Z AUTO 21008KT 10SM BKN021 OVC065 12/05 A3012 RMK AO2
KW22 211835Z AUTO 22008KT 10SM FEW023 SCT029 OVC060 11/06 A3012 RMK AO2
KW22 211815Z AUTO 22008KT 10SM BKN023 BKN029 OVC060 11/05 A3013 RMK AO2
KW22 211755Z AUTO 21007KT 10SM BKN023 BKN031 OVC065 11/05 A3014 RMK AO2
KW22 211735Z AUTO 21007G14KT 10SM BKN022 BKN034 OVC060 11/05 A3015 RMK AO2
KW22 211715Z AUTO 22007KT 5SM HZ BKN022 BKN030 OVC060 11/06 A3015 RMK AO2
KW22 211655Z AUTO 22008KT 10SM BKN021 OVC029 11/06 A3017 RMK AO2
KW22 211635Z AUTO 20007G13KT 10SM SCT022 OVC030 10/06 A3017 RMK AO2
KW22 211615Z AUTO 20006KT 10SM BKN030 OVC065 10/06 A3018 RMK AO2
KW22 211555Z AUTO 20008KT 10SM SCT032 OVC065 09/06 A3018 RMK AO2
KW22 211535Z AUTO 19008KT 10SM SCT029 BKN035 OVC065 09/06 A3018 RMK AO2
KW22 211515Z AUTO 20008KT 10SM BKN028 OVC060 09/05 A3019 RMK AO2
KW22 211455Z AUTO 20007KT 10SM FEW020 SCT027 OVC060 09/05 A3018 RMK AO2
KW22 211435Z AUTO 20008KT 10SM SCT019 BKN026 OVC035 08/06 A3018 RMK AO2
KW22 211415Z AUTO 19008KT 10SM SCT024 BKN029 OVC060 08/05 A3018 RMK AO2
KW22 211355Z AUTO 20006KT 10SM BKN021 OVC060 08/05 A3018 RMK AO2
KW22 211335Z AUTO 20007KT 10SM OVC019 08/06 A3018 RMK AO2
KW22 211315Z AUTO 21008G13KT 10SM SCT020 OVC031 08/05 A3017 RMK AO2
KW22 211255Z AUTO 23009G15KT 6SM HZ SCT020 BKN034 OVC047 08/05 A3017 RMK AO2
KW22 211235Z AUTO 23006KT 10SM SCT020 BKN036 OVC048 08/05 A3017 RMK AO2
KW22 211215Z AUTO 22009KT 10SM FEW020 SCT029 BKN037 08/05 A3017 RMK AO2
KW22 211155Z AUTO 24012G20KT 4SM HZ FEW016 BKN031 OVC040 08/05 A3017 RMK AO2
KW22 211135Z AUTO 22009KT 10SM OVC030 08/06 A3016 RMK AO2
KW22 211115Z AUTO 21006KT 10SM OVC029 08/07 A3016 RMK AO2
KW22 211055Z AUTO 21005KT 10SM OVC030 07/07 A3015 RMK AO2
KW22 211035Z AUTO 19004KT 10SM OVC029 07/07 A3015 RMK AO2
KW22 211015Z AUTO 19003KT 10SM FEW025 BKN030 OVC055 07/07 A3015 RMK AO2
KW22 210955Z AUTO 19004KT 10SM BKN028 OVC050 07/07 A3015 RMK AO2
KW22 210935Z AUTO 20005KT 10SM OVC029 07/07 A3015 RMK AO2
KW22 210915Z AUTO 21004KT 9SM BKN026 BKN030 OVC050 07/07 A3015 RMK AO2
KW22 210855Z AUTO 19004KT 4SM BR FEW013 SCT020 OVC024 07/07 A3015 RMK AO2
KW22 210835Z AUTO 20005KT 8SM FEW007 BKN014 OVC020 07/07 A3015 RMK AO2
KW22 210815Z AUTO 20004KT 5SM BR SCT006 OVC013 07/07 A3015 RMK AO2
KW22 210755Z AUTO 20006KT 2SM BR SCT005 BKN009 OVC012 07/07 A3016 RMK AO2
KW22 210735Z AUTO 20007KT 2 1/2SM BR BKN009 OVC013 07/07 A3016 RMK AO2
KW22 210715Z AUTO 21008KT 3SM BR FEW009 OVC014 07/07 A3016 RMK AO2
KW22 210655Z AUTO 21008KT 9SM OVC016 07/06 A3015 RMK AO2
KW22 210635Z AUTO 21008KT 5SM -DZ OVC016 07/06 A3016 RMK AO2
KW22 210615Z AUTO 22008G16KT 9SM BKN017 OVC021 08/04 A3016 RMK AO2